createdAt,value
2019-02-23T00:00:57.958Z,62.74
2019-02-23T00:02:00.712Z,62.50
2019-02-23T00:02:59.920Z,62.50
2019-02-23T00:03:58.786Z,62.99
2019-02-23T00:04:58.993Z,62.74
2019-02-23T00:05:59.169Z,62.50
2019-02-23T00:07:01.358Z,62.74
2019-02-23T00:07:59.363Z,62.99
2019-02-23T00:09:01.441Z,62.99
2019-02-23T00:10:00.791Z,63.23
2019-02-23T00:11:01.985Z,63.23
2019-02-23T00:12:00.029Z,62.74
2019-02-23T00:13:00.104Z,62.74
2019-02-23T00:14:01.396Z,63.23
2019-02-23T00:15:00.296Z,62.74
2019-02-23T00:16:00.437Z,62.74
2019-02-23T00:17:00.572Z,62.74
2019-02-23T00:18:00.766Z,62.74
2019-02-23T00:19:00.943Z,63.23
2019-02-23T00:20:01.088Z,63.48
2019-02-23T00:21:01.224Z,63.23
2019-02-23T00:22:01.373Z,63.23
2019-02-23T00:23:01.565Z,63.72
2019-02-23T00:24:01.720Z,62.99
2019-02-23T00:25:01.892Z,62.74
2019-02-23T00:26:02.027Z,62.99
2019-02-23T00:27:02.182Z,62.99
2019-02-23T00:28:02.331Z,63.48
2019-02-23T00:29:02.485Z,63.96
2019-02-23T00:30:02.667Z,62.99
2019-02-23T00:31:02.822Z,63.72
2019-02-23T00:32:02.972Z,63.72
2019-02-23T00:33:03.137Z,63.48
2019-02-23T00:34:03.298Z,63.48
2019-02-23T00:35:03.495Z,63.72
2019-02-23T00:36:03.650Z,62.99
2019-02-23T00:37:07.337Z,63.96
2019-02-23T00:38:07.661Z,64.21
2019-02-23T00:39:05.562Z,63.48
2019-02-23T00:40:06.119Z,63.23
2019-02-23T00:41:04.516Z,63.72
2019-02-23T00:42:04.801Z,63.48
2019-02-23T00:43:07.220Z,63.96
2019-02-23T00:44:05.201Z,63.48
2019-02-23T00:45:05.214Z,63.72
2019-02-23T00:46:08.600Z,63.72
2019-02-23T00:47:05.466Z,63.72
2019-02-23T00:48:05.618Z,63.96
2019-02-23T00:49:05.789Z,64.70
2019-02-23T00:50:05.719Z,63.48
2019-02-23T00:51:05.892Z,63.96
2019-02-23T00:52:06.051Z,63.72
2019-02-23T00:53:06.158Z,63.96
2019-02-23T00:54:06.339Z,63.72
2019-02-23T00:55:06.483Z,64.45
2019-02-23T00:56:06.638Z,64.70
2019-02-23T00:57:06.806Z,63.72
2019-02-23T00:58:06.964Z,64.21
2019-02-23T00:59:07.126Z,63.72
2019-02-23T01:00:07.306Z,63.96
2019-02-23T01:01:07.510Z,63.96
2019-02-23T01:02:07.731Z,63.96
2019-02-23T01:03:07.932Z,63.96
2019-02-23T01:04:08.107Z,63.72
2019-02-23T01:05:08.253Z,63.96
2019-02-23T01:06:08.390Z,63.96
2019-02-23T01:07:08.553Z,64.45
2019-02-23T01:08:08.740Z,63.96
2019-02-23T01:09:08.878Z,63.96
2019-02-23T01:10:09.025Z,63.72
2019-02-23T01:11:09.168Z,63.72
2019-02-23T01:12:09.349Z,63.72
2019-02-23T01:13:09.507Z,63.96
2019-02-23T01:14:09.652Z,63.96
2019-02-23T01:15:09.797Z,63.96
2019-02-23T01:16:09.962Z,64.45
2019-02-23T01:17:10.115Z,63.96
2019-02-23T01:18:10.260Z,64.45
2019-02-23T01:19:10.444Z,63.96
2019-02-23T01:20:10.612Z,63.96
2019-02-23T01:21:10.810Z,63.96
2019-02-23T01:22:10.948Z,63.96
2019-02-23T01:23:11.112Z,64.21
2019-02-23T01:24:11.257Z,64.21
2019-02-23T01:25:11.416Z,64.21
2019-02-23T01:26:11.576Z,64.21
2019-02-23T01:27:11.757Z,63.72
2019-02-23T01:28:11.896Z,64.21
2019-02-23T01:29:12.037Z,63.96
2019-02-23T01:30:12.183Z,63.96
2019-02-23T01:31:12.342Z,64.21
2019-02-23T01:32:12.509Z,63.96
2019-02-23T01:33:12.652Z,63.96
2019-02-23T01:34:12.833Z,64.45
2019-02-23T01:35:12.978Z,64.21
2019-02-23T01:36:13.172Z,64.45
2019-02-23T01:37:13.328Z,63.96
2019-02-23T01:38:13.480Z,64.70
2019-02-23T01:39:13.639Z,63.72
2019-02-23T01:40:13.738Z,63.96
2019-02-23T01:41:13.906Z,64.21
2019-02-23T01:42:14.133Z,64.21
2019-02-23T01:43:14.303Z,64.21
2019-02-23T01:44:14.464Z,63.96
2019-02-23T01:45:14.615Z,64.45
2019-02-23T01:46:14.810Z,63.96
2019-02-23T01:47:14.956Z,63.96
2019-02-23T01:48:15.103Z,64.94
2019-02-23T01:49:15.243Z,64.21
2019-02-23T01:50:15.390Z,63.72
2019-02-23T01:51:15.522Z,63.96
2019-02-23T01:52:15.672Z,64.45
2019-02-23T01:53:15.813Z,64.21
2019-02-23T01:54:15.956Z,64.45
2019-02-23T01:55:16.103Z,64.21
2019-02-23T01:56:16.262Z,64.21
2019-02-23T01:57:16.397Z,64.45
2019-02-23T01:58:16.568Z,64.45
2019-02-23T01:59:16.722Z,64.45
2019-02-23T02:00:16.870Z,63.96
2019-02-23T02:01:17.041Z,63.72
2019-02-23T02:02:17.198Z,64.21
2019-02-23T02:03:17.366Z,64.70
2019-02-23T02:04:17.522Z,64.21
2019-02-23T02:05:17.688Z,64.45
2019-02-23T02:06:17.851Z,63.72
2019-02-23T02:07:18.009Z,63.72
2019-02-23T02:08:18.803Z,63.72
2019-02-23T02:09:23.533Z,64.21
2019-02-23T02:10:22.605Z,63.72
2019-02-23T02:11:22.402Z,63.96
2019-02-23T02:12:21.691Z,64.21
2019-02-23T02:13:19.038Z,63.96
2019-02-23T02:14:19.205Z,63.96
2019-02-23T02:15:19.352Z,64.21
2019-02-23T02:16:19.492Z,63.72
2019-02-23T02:17:19.668Z,63.72
2019-02-23T02:18:19.757Z,64.21
2019-02-23T02:19:19.999Z,63.96
2019-02-23T02:20:20.140Z,64.21
2019-02-23T02:21:20.305Z,63.72
2019-02-23T02:22:20.446Z,64.21
2019-02-23T02:23:20.619Z,63.72
2019-02-23T02:24:20.814Z,64.21
2019-02-23T02:25:20.975Z,63.72
2019-02-23T02:26:21.145Z,64.21
2019-02-23T02:27:21.326Z,63.48
2019-02-23T02:28:21.473Z,63.96
2019-02-23T02:29:21.632Z,64.21
2019-02-23T02:30:21.789Z,63.96
2019-02-23T02:35:38.823Z,63.96
2019-02-23T02:36:13.667Z,64.45
2019-02-23T02:37:41.459Z,63.72
2019-02-23T02:38:13.949Z,64.21
2019-02-23T02:39:14.681Z,64.21
2019-02-23T02:40:14.209Z,63.48
2019-02-23T02:41:14.325Z,64.21
2019-02-23T02:42:14.401Z,63.96
2019-02-23T02:43:14.612Z,63.96
2019-02-23T02:44:14.843Z,64.21
2019-02-23T02:45:14.919Z,64.21
2019-02-23T02:46:16.705Z,63.96
2019-02-23T02:47:15.275Z,64.21
2019-02-23T02:48:15.486Z,64.21
2019-02-23T02:49:15.694Z,64.70
2019-02-23T02:50:24.344Z,63.72
2019-02-23T02:51:16.119Z,64.21
2019-02-23T02:52:16.284Z,63.48
2019-02-23T02:53:16.471Z,63.72
2019-02-23T02:54:16.617Z,63.48
2019-02-23T02:55:16.757Z,63.96
2019-02-23T02:56:16.950Z,63.72
2019-02-23T02:57:16.999Z,63.72
2019-02-23T02:58:17.098Z,63.96
2019-02-23T02:59:17.322Z,63.23
2019-02-23T03:00:17.505Z,64.45
2019-02-23T03:01:17.684Z,63.72
2019-02-23T03:02:17.955Z,63.48
2019-02-23T03:03:17.987Z,63.96
2019-02-23T03:04:18.161Z,63.96
2019-02-23T03:05:18.336Z,63.96
2019-02-23T03:06:18.474Z,63.96
2019-02-23T03:07:18.626Z,63.72
2019-02-23T03:08:18.774Z,63.96
2019-02-23T03:09:18.931Z,63.96
2019-02-23T03:10:19.077Z,63.96
2019-02-23T03:11:19.237Z,64.21
2019-02-23T03:12:19.440Z,63.96
2019-02-23T03:13:19.581Z,63.72
2019-02-23T03:14:19.753Z,63.96
2019-02-23T03:15:19.936Z,64.21
2019-02-23T03:16:20.085Z,63.96
2019-02-23T03:17:20.256Z,63.96
2019-02-23T03:18:20.409Z,63.72
2019-02-23T03:19:20.579Z,63.48
2019-02-23T03:20:20.772Z,63.72
2019-02-23T03:21:20.912Z,64.21
2019-02-23T03:22:21.020Z,64.70
2019-02-23T03:23:21.166Z,64.21
2019-02-23T03:24:21.344Z,64.21
2019-02-23T03:25:21.540Z,64.21
2019-02-23T03:26:21.688Z,64.21
2019-02-23T03:27:21.873Z,63.96
2019-02-23T03:28:22.023Z,64.21
2019-02-23T03:29:22.202Z,64.21
2019-02-23T03:30:22.388Z,63.72
2019-02-23T03:31:22.526Z,63.96
2019-02-23T03:32:22.697Z,63.96
2019-02-23T03:33:22.862Z,63.96
2019-02-23T03:34:23.015Z,64.21
2019-02-23T03:35:23.209Z,63.72
2019-02-23T03:36:23.284Z,64.21
2019-02-23T03:37:23.471Z,64.21
2019-02-23T03:38:23.659Z,63.96
2019-02-23T03:39:23.807Z,64.21
2019-02-23T03:40:23.979Z,64.21
2019-02-23T03:41:24.140Z,63.96
2019-02-23T03:42:24.322Z,63.72
2019-02-23T03:43:24.470Z,63.96
2019-02-23T03:44:24.627Z,64.21
2019-02-23T03:45:24.860Z,63.96
2019-02-23T03:46:24.992Z,63.72
2019-02-23T03:47:25.208Z,63.96
2019-02-23T03:48:25.379Z,63.96
2019-02-23T03:49:25.523Z,63.96
2019-02-23T03:50:25.703Z,63.96
2019-02-23T03:51:25.863Z,63.96
2019-02-23T03:52:26.046Z,63.96
2019-02-23T03:53:26.175Z,63.72
2019-02-23T03:54:26.388Z,63.72
2019-02-23T03:55:26.567Z,63.72
2019-02-23T03:56:26.769Z,63.96
2019-02-23T03:57:26.970Z,63.96
2019-02-23T03:58:27.125Z,63.96
2019-02-23T03:59:27.293Z,64.21
2019-02-23T04:00:27.460Z,63.72
2019-02-23T04:01:27.609Z,63.96
2019-02-23T04:02:27.779Z,64.21
2019-02-23T04:03:28.012Z,63.72
2019-02-23T04:04:28.062Z,63.48
2019-02-23T04:05:28.236Z,63.96
2019-02-23T04:06:28.381Z,63.96
2019-02-23T04:07:28.583Z,63.96
2019-02-23T04:08:28.748Z,63.72
2019-02-23T04:09:28.822Z,63.72
2019-02-23T04:10:29.025Z,63.72
2019-02-23T04:11:29.248Z,64.45
2019-02-23T04:12:29.360Z,63.96
2019-02-23T04:13:29.574Z,64.21
2019-02-23T04:14:30.665Z,64.21
2019-02-23T04:15:33.002Z,64.21
2019-02-23T04:16:31.239Z,64.21
2019-02-23T04:17:30.928Z,63.72
2019-02-23T04:18:30.706Z,63.96
2019-02-23T04:19:30.540Z,63.96
2019-02-23T04:20:30.733Z,63.96
2019-02-23T04:21:30.887Z,63.72
2019-02-23T04:22:31.033Z,63.96
2019-02-23T04:23:31.233Z,63.96
2019-02-23T04:24:31.395Z,64.45
2019-02-23T04:25:31.557Z,64.21
2019-02-23T04:26:31.729Z,64.21
2019-02-23T04:27:31.800Z,63.96
2019-02-23T04:28:32.009Z,63.96
2019-02-23T04:29:32.146Z,63.96
2019-02-23T04:30:32.327Z,63.72
2019-02-23T04:31:32.488Z,63.96
2019-02-23T04:32:32.629Z,63.96
2019-02-23T04:33:32.766Z,64.45
2019-02-23T04:34:32.957Z,64.21
2019-02-23T04:35:33.153Z,64.21
2019-02-23T04:36:36.291Z,63.96
2019-02-23T04:37:37.532Z,63.96
2019-02-23T04:38:38.126Z,63.72
2019-02-23T04:39:39.721Z,64.21
2019-02-23T04:40:36.535Z,63.96
2019-02-23T04:41:36.129Z,63.72
2019-02-23T04:42:34.348Z,63.96
2019-02-23T04:43:34.514Z,63.96
2019-02-23T04:44:34.664Z,63.72
2019-02-23T04:45:34.857Z,64.21
2019-02-23T04:46:35.019Z,63.96
2019-02-23T04:52:29.309Z,63.96
2019-02-23T04:52:50.905Z,64.21
2019-02-23T04:54:14.959Z,64.21
2019-02-23T04:54:51.778Z,63.72
2019-02-23T04:55:51.381Z,64.70
2019-02-23T04:56:52.252Z,63.72
2019-02-23T04:57:51.584Z,64.45
2019-02-23T04:58:51.792Z,65.19
2019-02-23T04:59:52.699Z,64.70
2019-02-23T05:00:52.204Z,64.45
2019-02-23T05:01:52.290Z,63.96
2019-02-23T05:02:52.498Z,63.72
2019-02-23T05:03:52.725Z,63.96
2019-02-23T05:04:53.030Z,63.96
2019-02-23T05:05:53.075Z,64.45
2019-02-23T05:06:53.233Z,63.96
2019-02-23T05:07:53.305Z,63.96
2019-02-23T05:08:53.501Z,64.70
2019-02-23T05:09:53.721Z,63.96
2019-02-23T05:10:54.716Z,64.45
2019-02-23T05:11:54.777Z,63.96
2019-02-23T05:12:54.134Z,63.96
2019-02-23T05:13:54.218Z,64.21
2019-02-23T05:14:54.350Z,64.45
2019-02-23T05:15:54.540Z,64.21
2019-02-23T05:16:54.741Z,64.21
2019-02-23T05:17:55.762Z,64.21
2019-02-23T05:18:55.822Z,64.45
2019-02-23T05:19:55.287Z,63.96
2019-02-23T05:20:55.509Z,64.70
2019-02-23T05:21:55.606Z,63.96
2019-02-23T05:22:55.803Z,64.21
2019-02-23T05:23:55.932Z,63.96
2019-02-23T05:24:56.737Z,63.96
2019-02-23T05:25:56.331Z,63.72
2019-02-23T05:26:56.532Z,64.45
2019-02-23T05:27:56.740Z,64.21
2019-02-23T05:28:56.979Z,64.21
2019-02-23T05:29:57.071Z,64.45
2019-02-23T05:30:57.288Z,64.70
2019-02-23T05:31:57.517Z,64.21
2019-02-23T05:32:57.612Z,63.96
2019-02-23T05:33:57.696Z,64.21
2019-02-23T05:34:57.913Z,64.45
2019-02-23T05:35:58.000Z,69.34
2019-02-23T05:36:58.232Z,64.21
2019-02-23T05:37:58.301Z,65.43
2019-02-23T05:38:58.518Z,63.96
2019-02-23T05:39:58.612Z,63.96
2019-02-23T05:40:58.693Z,64.21
2019-02-23T05:41:59.755Z,64.45
2019-02-23T05:43:01.275Z,64.21
2019-02-23T05:43:59.313Z,64.70
2019-02-23T05:44:59.422Z,64.21
2019-02-23T05:45:59.503Z,64.45
2019-02-23T05:47:00.249Z,64.45
2019-02-23T05:47:59.870Z,64.21
2019-02-23T05:49:00.013Z,64.45
2019-02-23T05:50:00.150Z,64.70
2019-02-23T05:51:00.296Z,64.21
2019-02-23T05:52:00.537Z,64.70
2019-02-23T05:53:00.616Z,64.45
2019-02-23T05:54:00.865Z,64.21
2019-02-23T05:55:01.081Z,64.21
2019-02-23T05:56:01.173Z,64.21
2019-02-23T05:57:01.247Z,63.96
2019-02-23T05:58:01.465Z,63.96
2019-02-23T05:59:01.714Z,64.45
2019-02-23T06:00:01.801Z,63.72
2019-02-23T06:01:01.990Z,64.21
2019-02-23T06:02:02.282Z,63.96
2019-02-23T06:03:02.373Z,63.96
2019-02-23T06:04:05.419Z,64.21
2019-02-23T06:05:04.654Z,63.96
2019-02-23T06:06:04.686Z,63.96
2019-02-23T06:07:04.036Z,63.96
2019-02-23T06:08:05.265Z,64.21
2019-02-23T06:09:03.341Z,64.21
2019-02-23T06:10:03.430Z,64.45
2019-02-23T06:11:03.599Z,64.45
2019-02-23T06:12:03.720Z,64.21
2019-02-23T06:13:03.869Z,64.70
2019-02-23T06:14:04.030Z,64.70
2019-02-23T06:15:04.216Z,63.96
2019-02-23T06:16:04.251Z,64.45
2019-02-23T06:17:04.441Z,64.45
2019-02-23T06:18:05.287Z,64.21
2019-02-23T06:19:04.749Z,64.21
2019-02-23T06:20:05.774Z,64.21
2019-02-23T06:21:06.927Z,63.96
2019-02-23T06:22:09.401Z,64.21
2019-02-23T06:23:06.306Z,64.45
2019-02-23T06:24:05.613Z,64.21
2019-02-23T06:25:05.659Z,64.21
2019-02-23T06:26:05.834Z,64.45
2019-02-23T06:27:05.932Z,64.21
2019-02-23T06:28:06.765Z,64.21
2019-02-23T06:29:06.294Z,64.94
2019-02-23T06:30:06.645Z,64.70
2019-02-23T06:31:06.658Z,64.21
2019-02-23T06:32:07.340Z,64.21
2019-02-23T06:33:06.868Z,64.21
2019-02-23T06:34:15.580Z,63.96
2019-02-23T06:35:07.363Z,64.45
2019-02-23T06:36:07.914Z,64.21
2019-02-23T06:37:08.729Z,64.45
2019-02-23T06:38:08.309Z,64.21
2019-02-23T06:39:08.403Z,64.21
2019-02-23T06:40:08.077Z,64.21
2019-02-23T06:41:08.265Z,63.72
2019-02-23T06:42:08.680Z,63.72
2019-02-23T06:43:08.637Z,64.45
2019-02-23T06:44:09.107Z,64.21
2019-02-23T06:45:09.166Z,64.21
2019-02-23T06:46:09.541Z,64.70
2019-02-23T06:47:10.023Z,64.45
2019-02-23T06:48:09.434Z,64.70
2019-02-23T06:49:10.283Z,64.21
2019-02-23T06:50:09.649Z,63.72
2019-02-23T06:51:09.869Z,63.96
2019-02-23T06:52:10.068Z,64.45
2019-02-23T06:53:13.277Z,64.21
2019-02-23T06:54:11.853Z,64.70
2019-02-23T06:55:11.991Z,63.96
2019-02-23T06:56:11.762Z,64.21
2019-02-23T06:57:10.995Z,63.72
2019-02-23T06:58:11.135Z,64.45
2019-02-23T06:59:11.246Z,63.96
2019-02-23T07:00:11.855Z,63.96
2019-02-23T07:01:11.459Z,63.72
2019-02-23T07:02:11.562Z,63.23
2019-02-23T07:03:11.656Z,62.99
2019-02-23T07:04:11.729Z,70.07
2019-02-23T07:05:23.847Z,62.99
2019-02-23T07:06:12.039Z,63.23
2019-02-23T07:07:20.535Z,65.19
2019-02-23T07:08:12.490Z,64.70
2019-02-23T07:09:12.551Z,62.74
2019-02-23T07:10:21.673Z,63.72
2019-02-23T07:11:12.816Z,62.50
2019-02-23T07:12:39.463Z,62.50
2019-02-23T07:13:13.845Z,62.01
2019-02-23T07:14:13.148Z,62.74
2019-02-23T07:15:13.278Z,62.74
2019-02-23T07:16:13.515Z,62.50
2019-02-23T07:17:13.700Z,62.26
2019-02-23T07:18:14.863Z,62.99
2019-02-23T07:19:14.055Z,62.26
2019-02-23T07:20:14.285Z,62.50
2019-02-23T07:21:14.371Z,61.77
2019-02-23T07:22:15.785Z,61.77
2019-02-23T07:23:14.709Z,60.55
2019-02-23T07:24:14.803Z,60.55
2019-02-23T07:25:15.100Z,59.81
2019-02-23T07:26:14.946Z,59.57
2019-02-23T07:27:15.216Z,59.08
2019-02-23T07:28:15.441Z,57.13
2019-02-23T07:29:15.564Z,57.86
2019-02-23T07:30:15.643Z,58.35
2019-02-23T07:31:15.868Z,57.62
2019-02-23T07:32:15.964Z,58.35
2019-02-23T07:33:16.039Z,57.62
2019-02-23T07:34:16.260Z,57.62
2019-02-23T07:35:17.322Z,58.11
2019-02-23T07:36:16.551Z,54.93
2019-02-23T07:37:17.972Z,58.11
2019-02-23T07:38:17.671Z,55.66
2019-02-23T07:39:18.469Z,58.11
2019-02-23T07:40:17.133Z,57.37
2019-02-23T07:41:17.331Z,56.40
2019-02-23T07:42:17.562Z,58.59
2019-02-23T07:43:17.658Z,59.33
2019-02-23T07:44:17.756Z,55.91
2019-02-23T07:45:17.832Z,55.18
2019-02-23T07:46:18.031Z,55.66
2019-02-23T07:47:18.248Z,57.13
2019-02-23T07:48:18.451Z,59.57
2019-02-23T07:49:19.329Z,60.55
2019-02-23T07:50:18.798Z,69.82
2019-02-23T07:51:18.989Z,54.44
2019-02-23T07:52:26.368Z,54.44
2019-02-23T07:53:19.400Z,60.06
2019-02-23T07:54:19.613Z,52.73
2019-02-23T07:55:19.839Z,57.13
2019-02-23T07:56:19.926Z,53.71
2019-02-23T07:57:20.060Z,54.20
2019-02-23T07:58:20.385Z,53.71
2019-02-23T07:59:20.479Z,54.20
2019-02-23T08:00:20.681Z,56.88
2019-02-23T08:01:20.901Z,59.33
2019-02-23T08:02:21.131Z,52.73
2019-02-23T08:03:21.227Z,62.50
2019-02-23T08:04:21.870Z,53.96
2019-02-23T08:05:21.379Z,57.37
2019-02-23T08:06:21.539Z,52.73
2019-02-23T08:07:21.666Z,52.98
2019-02-23T08:08:21.791Z,60.30
2019-02-23T08:09:21.893Z,53.47
2019-02-23T08:10:22.039Z,54.44
2019-02-23T08:11:22.144Z,62.99
2019-02-23T08:12:22.299Z,57.37
2019-02-23T08:13:22.421Z,59.81
2019-02-23T08:14:22.600Z,57.62
2019-02-23T08:15:22.765Z,56.40
2019-02-23T08:16:22.919Z,56.64
2019-02-23T08:17:23.012Z,55.66
2019-02-23T08:18:23.209Z,53.47
2019-02-23T08:19:23.429Z,55.18
2019-02-23T08:20:23.515Z,56.88
2019-02-23T08:21:23.750Z,55.66
2019-02-23T08:22:23.832Z,56.15
2019-02-23T08:23:24.113Z,55.42
2019-02-23T08:24:24.180Z,56.64
2019-02-23T08:25:24.453Z,62.50
2019-02-23T08:26:24.618Z,52.98
2019-02-23T08:27:24.722Z,53.96
2019-02-23T08:28:24.841Z,53.96
2019-02-23T08:29:25.009Z,54.44
2019-02-23T08:30:25.173Z,59.81
2019-02-23T08:31:25.289Z,53.47
2019-02-23T08:32:25.429Z,54.44
2019-02-23T08:33:25.567Z,55.18
2019-02-23T08:34:25.700Z,57.13
2019-02-23T08:35:25.890Z,53.96
2019-02-23T08:36:26.276Z,52.49
2019-02-23T08:37:26.134Z,54.44
2019-02-23T08:38:26.804Z,56.40
2019-02-23T08:39:26.417Z,56.15
2019-02-23T08:40:26.623Z,55.42
2019-02-23T08:41:27.191Z,55.18
2019-02-23T08:42:26.838Z,54.93
2019-02-23T08:43:29.087Z,54.44
2019-02-23T08:44:27.194Z,53.71
2019-02-23T08:45:27.711Z,52.98
2019-02-23T08:46:27.636Z,54.44
2019-02-23T08:47:27.811Z,51.51
2019-02-23T08:48:27.979Z,52.98
2019-02-23T08:49:28.097Z,54.69
2019-02-23T08:50:28.230Z,52.73
2019-02-23T08:51:28.378Z,58.35
2019-02-23T08:52:28.591Z,58.59
2019-02-23T08:53:28.754Z,58.35
2019-02-23T08:54:28.888Z,60.30
2019-02-23T08:55:30.960Z,59.81
2019-02-23T08:56:31.147Z,62.50
2019-02-23T08:57:30.158Z,54.93
2019-02-23T08:58:30.263Z,55.66
2019-02-23T08:59:30.722Z,55.66
2019-02-23T09:00:30.685Z,51.76
2019-02-23T09:01:30.509Z,71.04
2019-02-23T09:02:30.493Z,52.25
2019-02-23T09:03:30.541Z,53.47
2019-02-23T09:04:30.645Z,52.73
2019-02-23T09:05:30.825Z,55.91
2019-02-23T09:06:31.037Z,56.88
2019-02-23T09:07:31.214Z,57.37
2019-02-23T09:08:31.366Z,56.88
2019-02-23T09:09:31.537Z,55.91
2019-02-23T09:10:31.690Z,57.86
2019-02-23T09:11:31.834Z,54.44
2019-02-23T09:12:31.963Z,54.93
2019-02-23T09:13:32.107Z,54.20
2019-02-23T09:14:32.254Z,54.69
2019-02-23T09:15:32.435Z,51.51
2019-02-23T09:16:32.690Z,52.25
2019-02-23T09:17:32.791Z,52.98
2019-02-23T09:18:32.862Z,57.86
2019-02-23T09:19:33.063Z,55.42
2019-02-23T09:20:33.194Z,52.73
2019-02-23T09:21:33.349Z,53.71
2019-02-23T09:22:33.504Z,55.66
2019-02-23T09:23:33.668Z,57.13
2019-02-23T09:24:33.780Z,55.18
2019-02-23T09:25:34.049Z,55.42
2019-02-23T09:26:34.283Z,52.25
2019-02-23T09:27:34.234Z,52.73
2019-02-23T09:28:34.676Z,54.69
2019-02-23T09:29:34.510Z,51.76
2019-02-23T09:30:34.666Z,57.13
2019-02-23T09:31:34.856Z,54.44
2019-02-23T09:32:35.081Z,50.54
2019-02-23T09:33:35.252Z,57.86
2019-02-23T09:34:35.536Z,58.84
2019-02-23T09:35:35.728Z,56.64
2019-02-23T09:36:35.896Z,57.37
2019-02-23T09:37:36.342Z,56.40
2019-02-23T09:38:37.115Z,57.13
2019-02-23T09:39:36.234Z,56.88
2019-02-23T09:40:36.323Z,55.18
2019-02-23T09:41:36.766Z,52.25
2019-02-23T09:42:36.720Z,52.00
2019-02-23T09:43:36.833Z,54.44
2019-02-23T09:44:36.885Z,57.62
2019-02-23T09:45:37.109Z,55.18
2019-02-23T09:46:37.225Z,53.71
2019-02-23T09:47:37.320Z,53.22
2019-02-23T09:48:37.493Z,52.25
2019-02-23T09:49:37.698Z,55.91
2019-02-23T09:50:37.868Z,55.66
2019-02-23T09:51:38.099Z,52.49
2019-02-23T09:52:38.262Z,52.25
2019-02-23T09:53:38.333Z,55.66
2019-02-23T09:54:38.496Z,56.15
2019-02-23T09:55:38.674Z,55.42
2019-02-23T09:56:38.813Z,51.51
2019-02-23T09:57:38.975Z,53.47
2019-02-23T09:58:39.136Z,55.42
2019-02-23T09:59:40.138Z,56.40
2019-02-23T10:00:39.429Z,54.44
2019-02-23T10:01:39.489Z,55.42
2019-02-23T10:02:39.714Z,54.69
2019-02-23T10:03:39.893Z,52.98
2019-02-23T10:04:40.158Z,77.15
2019-02-23T10:05:42.450Z,55.91
2019-02-23T10:06:42.806Z,50.54
2019-02-23T10:07:43.264Z,54.44
2019-02-23T10:08:42.070Z,58.84
2019-02-23T10:09:42.366Z,57.62
2019-02-23T10:10:43.056Z,58.84
2019-02-23T10:11:42.660Z,57.37
2019-02-23T10:12:42.319Z,56.40
2019-02-23T10:13:42.866Z,55.18
2019-02-23T10:14:43.422Z,54.93
2019-02-23T10:15:43.914Z,55.42
2019-02-23T10:16:43.699Z,51.51
2019-02-23T10:17:43.808Z,51.03
2019-02-23T10:18:44.443Z,55.66
2019-02-23T10:19:43.346Z,55.66
2019-02-23T10:20:43.718Z,61.04
2019-02-23T10:21:43.641Z,55.42
2019-02-23T10:22:44.321Z,49.80
2019-02-23T10:23:44.574Z,56.15
2019-02-23T10:24:44.166Z,59.33
2019-02-23T10:25:44.297Z,52.25
2019-02-23T10:26:44.334Z,52.00
2019-02-23T10:27:44.202Z,58.84
2019-02-23T10:28:44.339Z,57.86
2019-02-23T10:29:44.466Z,53.96
2019-02-23T10:30:44.763Z,64.45
2019-02-23T10:31:44.880Z,64.70
2019-02-23T10:32:45.114Z,59.33
2019-02-23T10:33:47.511Z,60.79
2019-02-23T10:34:45.472Z,59.57
2019-02-23T10:35:45.430Z,55.18
2019-02-23T10:36:45.504Z,58.59
2019-02-23T10:37:45.768Z,53.96
2019-02-23T10:38:45.938Z,63.48
2019-02-23T10:39:46.056Z,63.96
2019-02-23T10:40:46.223Z,55.66
2019-02-23T10:41:46.658Z,56.88
2019-02-23T10:42:46.862Z,67.38
2019-02-23T10:43:46.707Z,63.96
2019-02-23T10:44:46.795Z,56.64
2019-02-23T10:45:46.993Z,58.59
2019-02-23T10:46:47.550Z,60.30
2019-02-23T10:47:47.497Z,60.06
2019-02-23T10:48:47.633Z,57.86
2019-02-23T10:49:48.264Z,72.02
2019-02-23T10:50:48.620Z,56.88
2019-02-23T10:51:47.818Z,49.80
2019-02-23T10:52:48.434Z,55.42
2019-02-23T10:53:48.211Z,56.15
2019-02-23T10:54:48.372Z,53.47
2019-02-23T10:55:48.625Z,52.00
2019-02-23T10:56:48.715Z,55.66
2019-02-23T10:57:48.871Z,57.62
2019-02-23T10:58:48.986Z,56.64
2019-02-23T10:59:49.091Z,50.05
2019-02-23T11:00:49.307Z,51.76
2019-02-23T11:01:49.422Z,52.25
2019-02-23T11:02:49.589Z,55.66
2019-02-23T11:03:49.809Z,51.51
2019-02-23T11:04:49.964Z,50.29
2019-02-23T11:05:50.205Z,58.35
2019-02-23T11:06:50.400Z,57.62
2019-02-23T11:07:50.597Z,59.08
2019-02-23T11:08:52.056Z,56.15
2019-02-23T11:09:51.462Z,54.44
2019-02-23T11:10:52.767Z,55.42
2019-02-23T11:11:51.933Z,53.22
2019-02-23T11:12:52.440Z,51.76
2019-02-23T11:13:53.548Z,57.13
2019-02-23T11:14:52.114Z,51.76
2019-02-23T11:15:52.543Z,52.98
2019-02-23T11:16:52.081Z,57.13
2019-02-23T11:17:52.265Z,56.88
2019-02-23T11:18:52.437Z,57.86
2019-02-23T11:19:52.619Z,54.20
2019-02-23T11:20:52.788Z,52.00
2019-02-23T11:21:52.953Z,57.62
2019-02-23T11:22:53.145Z,60.06
2019-02-23T11:23:53.383Z,55.18
2019-02-23T11:24:53.572Z,52.73
2019-02-23T11:25:53.724Z,60.30
2019-02-23T11:26:53.931Z,57.37
2019-02-23T11:27:54.037Z,57.13
2019-02-23T11:28:54.180Z,52.25
2019-02-23T11:29:54.325Z,52.98
2019-02-23T11:30:54.468Z,57.37
2019-02-23T11:31:54.632Z,57.86
2019-02-23T11:32:54.792Z,51.27
2019-02-23T11:33:54.918Z,52.25
2019-02-23T11:34:55.061Z,57.13
2019-02-23T11:35:55.199Z,57.37
2019-02-23T11:36:55.329Z,57.13
2019-02-23T11:37:55.489Z,52.98
2019-02-23T11:38:55.650Z,53.71
2019-02-23T11:39:55.806Z,58.35
2019-02-23T11:40:56.002Z,59.08
2019-02-23T11:41:56.110Z,58.59
2019-02-23T11:42:56.285Z,55.91
2019-02-23T11:43:56.421Z,58.11
2019-02-23T11:44:56.561Z,56.88
2019-02-23T11:45:56.694Z,52.98
2019-02-23T11:47:00.464Z,53.71
2019-02-23T11:47:56.945Z,54.20
2019-02-23T11:48:57.177Z,56.40
2019-02-23T11:49:57.267Z,59.81
2019-02-23T11:50:57.513Z,58.11
2019-02-23T11:51:57.600Z,60.06
2019-02-23T11:52:57.893Z,56.40
2019-02-23T11:53:58.096Z,53.47
2019-02-23T11:54:58.235Z,53.22
2019-02-23T11:55:58.344Z,57.62
2019-02-23T11:56:58.490Z,58.11
2019-02-23T11:57:58.682Z,58.35
2019-02-23T11:58:58.910Z,54.44
2019-02-23T11:59:59.038Z,53.71
2019-02-23T12:00:59.157Z,54.44
2019-02-23T12:01:59.214Z,52.98
2019-02-23T12:02:59.696Z,53.47
2019-02-23T12:03:59.521Z,56.64
2019-02-23T12:04:59.709Z,53.47
2019-02-23T12:05:59.865Z,56.40
2019-02-23T12:07:00.020Z,56.15
2019-02-23T12:08:00.162Z,57.62
2019-02-23T12:09:00.231Z,57.37
2019-02-23T12:10:00.484Z,51.27
2019-02-23T12:11:00.575Z,53.96
2019-02-23T12:12:00.815Z,56.40
2019-02-23T12:13:00.925Z,61.04
2019-02-23T12:14:01.040Z,61.77
2019-02-23T12:15:01.288Z,60.30
2019-02-23T12:16:01.452Z,57.13
2019-02-23T12:17:01.769Z,57.37
2019-02-23T12:18:01.946Z,57.13
2019-02-23T12:19:02.038Z,56.64
2019-02-23T12:20:02.213Z,55.91
2019-02-23T12:21:02.446Z,55.66
2019-02-23T12:22:12.096Z,51.03
2019-02-23T12:23:02.771Z,52.00
2019-02-23T12:24:06.111Z,56.64
2019-02-23T12:25:03.164Z,52.98
2019-02-23T12:26:03.301Z,51.27
2019-02-23T12:27:03.587Z,57.62
2019-02-23T12:28:03.686Z,56.64
2019-02-23T12:29:03.789Z,56.40
2019-02-23T12:30:03.898Z,52.25
2019-02-23T12:31:04.076Z,51.51
2019-02-23T12:32:04.186Z,52.00
2019-02-23T12:33:04.350Z,52.73
2019-02-23T12:34:04.571Z,53.22
2019-02-23T12:35:04.726Z,55.91
2019-02-23T12:36:04.952Z,52.49
2019-02-23T12:37:05.067Z,54.20
2019-02-23T12:38:05.137Z,57.13
2019-02-23T12:39:05.279Z,57.13
2019-02-23T12:40:05.482Z,57.62
2019-02-23T12:41:05.659Z,56.15
2019-02-23T12:42:05.908Z,70.31
2019-02-23T12:43:06.050Z,56.64
2019-02-23T12:44:06.186Z,58.11
2019-02-23T12:45:06.353Z,58.59
2019-02-23T12:46:06.543Z,54.20
2019-02-23T12:47:06.672Z,52.98
2019-02-23T12:48:06.815Z,51.51
2019-02-23T12:49:06.985Z,55.66
2019-02-23T12:50:07.172Z,55.66
2019-02-23T12:51:07.310Z,52.73
2019-02-23T12:52:07.408Z,54.20
2019-02-23T12:53:07.532Z,57.86
2019-02-23T12:54:16.472Z,53.47
2019-02-23T12:55:07.929Z,52.00
2019-02-23T12:56:08.075Z,51.76
2019-02-23T12:57:08.327Z,58.59
2019-02-23T12:58:08.519Z,57.13
2019-02-23T12:59:08.704Z,51.03
2019-02-23T13:00:09.058Z,53.22
2019-02-23T13:01:09.056Z,58.11
2019-02-23T13:02:09.293Z,57.62
2019-02-23T13:03:09.503Z,57.62